Terminal Aerodrome Forecast
Issued by NWS

Home | Current Version | Previous Version | Text Only | Print | Product List | Glossary On
Versions: 1 2 3 4 5 6 7 8 9 10 11 12 13 14 15 16 17 18 19 20 21 22 23 24 25 26 27
000
FTUS43 KIND 201120
TAFBMG
TAF
KBMG 201120Z 2012/2112 24006KT 4SM BR OVC006
     FM201700 23008KT 4SM BR OVC008
     FM202100 20007KT 6SM BR OVC010
     FM210100 16006KT 6SM BR OVC010
     FM210800 19007KT 5SM BR BKN010
      AMD LTD TO CLD VIS AND WIND TIL 201400=

USA.gov is the U.S. government's official web portal to all federal, state and local government web resources and services.